Time;durP1;ratioP1;P1;durP2;ratioP2;P2;SDS_P1;SDS_P2;PMS_P1;PMS_P2;Temp;Humidity;BMP_temperature;BMP_pressure;BME280_temperature;BME280_humidity;BME280_pressure;Samples;Min_cycle;Max_cycle;Signal;HPM_P1;HPM_P2
2022/03/15 00:02:16;;;;;;;16.58;7.68;;;;;;;;;;5030224;28;20064;-63
2022/03/15 00:04:42;;;;;;;14.88;7.70;;;;;;;;;;5043094;28;20039;-64
2022/03/15 00:07:11;;;;;;;16.00;8.35;;;;;;;;;;5042746;28;20060;-63
2022/03/15 00:09:36;;;;;;;15.88;8.18;;;;;;;;;;5042251;28;20529;-63
2022/03/15 00:12:03;;;;;;;16.25;7.60;;;;;;;;;;5041942;28;20116;-65
2022/03/15 00:14:28;;;;;;;12.57;7.75;;;;;;;;;;5043423;28;20121;-64
2022/03/15 00:16:54;;;;;;;15.80;7.50;;;;;;;;;;5045752;28;20123;-63
2022/03/15 00:19:19;;;;;;;14.93;7.43;;;;;;;;;;5032866;28;20033;-63
2022/03/15 00:21:45;;;;;;;16.23;7.55;;;;;;;;;;5037448;28;20049;-63
2022/03/15 00:24:11;;;;;;;13.10;7.55;;;;;;;;;;5047729;28;20043;-63
2022/03/15 00:26:37;;;;;;;14.60;7.57;;;;;;;;;;5049536;28;20032;-63
2022/03/15 00:29:02;;;;;;;14.57;8.05;;;;;;;;;;5048777;28;20410;-63
2022/03/15 00:31:28;;;;;;;13.07;7.43;;;;;;;;;;5049006;28;20041;-65
2022/03/15 00:33:53;;;;;;;14.00;7.57;;;;;;;;;;5049150;28;20066;-63
2022/03/15 00:36:19;;;;;;;14.95;7.75;;;;;;;;;;5041549;28;20047;-62
2022/03/15 00:38:44;;;;;;;20.55;8.73;;;;;;;;;;5047931;28;20033;-63
2022/03/15 00:41:10;;;;;;;13.82;8.20;;;;;;;;;;5049682;28;20033;-62
2022/03/15 00:43:35;;;;;;;17.95;8.00;;;;;;;;;;5039141;28;20143;-62
2022/03/15 00:46:02;;;;;;;15.10;7.97;;;;;;;;;;5044692;28;20452;-62
2022/03/15 00:48:27;;;;;;;18.02;8.13;;;;;;;;;;5039596;28;20037;-62
2022/03/15 00:50:53;;;;;;;14.68;7.80;;;;;;;;;;5047927;28;20066;-64
2022/03/15 00:53:19;;;;;;;13.88;7.65;;;;;;;;;;5043736;28;20025;-63
2022/03/15 00:55:44;;;;;;;18.70;7.93;;;;;;;;;;5049111;28;20029;-63
2022/03/15 00:58:11;;;;;;;21.73;8.30;;;;;;;;;;5049416;28;20425;-63
2022/03/15 01:00:36;;;;;;;19.17;8.13;;;;;;;;;;5046685;28;20040;-63
2022/03/15 01:03:03;;;;;;;17.83;8.43;;;;;;;;;;5042509;28;20111;-61
2022/03/15 01:05:28;;;;;;;20.27;8.75;;;;;;;;;;5049882;28;20029;-62
2022/03/15 01:07:54;;;;;;;20.17;8.68;;;;;;;;;;5049227;28;20394;-63
2022/03/15 01:10:20;;;;;;;16.02;8.60;;;;;;;;;;5035130;28;20032;-63
2022/03/15 01:12:45;;;;;;;14.52;8.18;;;;;;;;;;5050824;28;20033;-62
2022/03/15 01:15:11;;;;;;;19.95;8.55;;;;;;;;;;5049322;28;20094;-62
2022/03/15 01:17:36;;;;;;;16.45;8.25;;;;;;;;;;5047794;28;20044;-63
2022/03/15 01:20:07;;;;;;;16.85;8.30;;;;;;;;;;5047223;28;20071;-62
2022/03/15 01:22:33;;;;;;;15.70;7.78;;;;;;;;;;5045116;28;20434;-62
2022/03/15 01:24:59;;;;;;;16.00;8.05;;;;;;;;;;5048041;28;20045;-62
2022/03/15 01:27:24;;;;;;;17.90;8.52;;;;;;;;;;5041333;28;20037;-62
2022/03/15 01:29:49;;;;;;;15.57;8.43;;;;;;;;;;5054017;28;20044;-62
2022/03/15 01:32:16;;;;;;;15.93;8.55;;;;;;;;;;5050357;28;20486;-62
2022/03/15 01:34:42;;;;;;;17.27;7.75;;;;;;;;;;5044192;28;20040;-63
2022/03/15 01:37:07;;;;;;;14.27;7.70;;;;;;;;;;5040909;28;20033;-63
2022/03/15 01:39:33;;;;;;;19.20;8.73;;;;;;;;;;5040999;28;20402;-63
2022/03/15 01:41:58;;;;;;;18.38;7.82;;;;;;;;;;5050822;28;20040;-62
2022/03/15 01:44:26;;;;;;;17.10;8.02;;;;;;;;;;5050465;28;20025;-62
2022/03/15 01:46:52;;;;;;;15.57;7.60;;;;;;;;;;5052661;28;20040;-61
2022/03/15 01:49:18;;;;;;;14.23;8.23;;;;;;;;;;5051667;28;20168;-63
2022/03/15 01:51:46;;;;;;;13.95;7.75;;;;;;;;;;5042211;28;20036;-62
2022/03/15 01:54:13;;;;;;;16.90;7.88;;;;;;;;;;5052224;28;20029;-62
2022/03/15 01:56:41;;;;;;;18.38;8.50;;;;;;;;;;5050632;28;20037;-64
2022/03/15 01:59:08;;;;;;;16.90;8.13;;;;;;;;;;5050563;28;20029;-63
2022/03/15 02:01:34;;;;;;;15.57;7.82;;;;;;;;;;5038139;28;20479;-63
2022/03/15 02:03:59;;;;;;;16.17;7.97;;;;;;;;;;5050574;28;20033;-62
2022/03/15 02:06:25;;;;;;;15.10;7.22;;;;;;;;;;5034791;28;20462;-63
2022/03/15 02:08:50;;;;;;;18.58;8.32;;;;;;;;;;5044727;28;20068;-63
2022/03/15 02:11:17;;;;;;;16.95;7.60;;;;;;;;;;5051625;28;20510;-63
2022/03/15 02:13:43;;;;;;;16.95;8.20;;;;;;;;;;5052781;28;20501;-63
2022/03/15 02:16:09;;;;;;;16.88;8.00;;;;;;;;;;5049282;28;20477;-63
2022/03/15 02:18:34;;;;;;;15.90;7.72;;;;;;;;;;5037422;28;20033;-63
2022/03/15 02:20:59;;;;;;;15.27;7.78;;;;;;;;;;5052650;28;20496;-63
2022/03/15 02:23:25;;;;;;;14.23;7.97;;;;;;;;;;5051026;28;20455;-64
2022/03/15 02:25:50;;;;;;;14.90;8.02;;;;;;;;;;5049543;28;20033;-63
2022/03/15 02:28:16;;;;;;;14.52;7.65;;;;;;;;;;5041896;28;20256;-63
2022/03/15 02:30:41;;;;;;;15.10;7.57;;;;;;;;;;5050099;28;20114;-62
2022/03/15 02:33:07;;;;;;;16.33;8.30;;;;;;;;;;5050742;28;20128;-62
2022/03/15 02:35:32;;;;;;;14.18;7.63;;;;;;;;;;5051037;28;20039;-63
2022/03/15 02:37:57;;;;;;;15.10;7.82;;;;;;;;;;5045687;28;20039;-63
2022/03/15 02:40:23;;;;;;;14.73;8.32;;;;;;;;;;5039836;28;20463;-62
2022/03/15 02:42:48;;;;;;;15.40;8.30;;;;;;;;;;5038988;28;20516;-63
2022/03/15 02:45:15;;;;;;;19.30;8.75;;;;;;;;;;5044827;28;20025;-62
2022/03/15 02:47:43;;;;;;;15.02;7.93;;;;;;;;;;5053248;28;20611;-63
2022/03/15 02:50:10;;;;;;;18.27;7.90;;;;;;;;;;5040130;28;20038;-63
2022/03/15 02:52:36;;;;;;;16.52;7.90;;;;;;;;;;5036531;28;20045;-63
2022/03/15 02:55:02;;;;;;;14.00;7.75;;;;;;;;;;5051947;28;20461;-63
2022/03/15 02:57:28;;;;;;;13.38;7.35;;;;;;;;;;5045115;28;20037;-64
2022/03/15 02:59:55;;;;;;;15.07;8.60;;;;;;;;;;5033029;28;20040;-63
2022/03/15 03:02:21;;;;;;;17.38;8.00;;;;;;;;;;5032205;28;20033;-63
2022/03/15 03:04:46;;;;;;;13.57;7.97;;;;;;;;;;5040225;28;20037;-63
2022/03/15 03:07:14;;;;;;;17.77;8.23;;;;;;;;;;5051358;28;20397;-63
2022/03/15 03:09:39;;;;;;;16.05;8.38;;;;;;;;;;5033409;28;20076;-62
2022/03/15 03:12:05;;;;;;;16.95;8.48;;;;;;;;;;5031852;28;20061;-63
2022/03/15 03:14:30;;;;;;;16.80;8.27;;;;;;;;;;5047060;28;20086;-63
2022/03/15 03:16:56;;;;;;;16.73;8.07;;;;;;;;;;5052303;28;20033;-62
2022/03/15 03:19:22;;;;;;;16.17;8.00;;;;;;;;;;5050165;28;20098;-64
2022/03/15 03:21:49;;;;;;;17.95;8.25;;;;;;;;;;5051184;28;20065;-62
2022/03/15 03:24:24;;;;;;;15.32;8.13;;;;;;;;;;5046873;28;20029;-64
2022/03/15 03:26:49;;;;;;;14.20;8.20;;;;;;;;;;5052313;28;20037;-64
2022/03/15 03:29:15;;;;;;;15.25;8.70;;;;;;;;;;5041570;28;20080;-64
2022/03/15 03:31:43;;;;;;;17.77;7.97;;;;;;;;;;5032558;28;20021;-64
2022/03/15 03:34:10;;;;;;;14.30;8.07;;;;;;;;;;5046784;28;20051;-63
2022/03/15 03:36:36;;;;;;;18.63;8.50;;;;;;;;;;5049538;28;20033;-64
2022/03/15 03:39:03;;;;;;;18.52;8.43;;;;;;;;;;5052395;28;20421;-63
2022/03/15 03:41:29;;;;;;;17.25;8.38;;;;;;;;;;5044337;28;20049;-64
2022/03/15 03:44:05;;;;;;;15.77;8.65;;;;;;;;;;5040969;28;20032;-63
2022/03/15 03:46:31;;;;;;;18.33;8.63;;;;;;;;;;5043061;28;20040;-64
2022/03/15 03:48:57;;;;;;;15.43;7.63;;;;;;;;;;5037691;28;20037;-63
2022/03/15 03:51:22;;;;;;;13.90;7.97;;;;;;;;;;5047511;28;20059;-63
2022/03/15 03:53:48;;;;;;;16.27;8.38;;;;;;;;;;5051822;28;20033;-63
2022/03/15 03:56:13;;;;;;;13.70;8.43;;;;;;;;;;5048278;28;20041;-62
2022/03/15 03:58:39;;;;;;;15.95;8.02;;;;;;;;;;5047195;28;20390;-63
2022/03/15 04:01:04;;;;;;;15.55;7.85;;;;;;;;;;5043352;28;20041;-63
2022/03/15 04:03:31;;;;;;;16.50;8.00;;;;;;;;;;5049545;28;20051;-64
2022/03/15 04:05:57;;;;;;;16.52;7.85;;;;;;;;;;5047237;28;20029;-63
2022/03/15 04:08:24;;;;;;;16.33;8.07;;;;;;;;;;5037301;28;20041;-63
2022/03/15 04:10:50;;;;;;;15.80;7.55;;;;;;;;;;5034502;28;20033;-63
2022/03/15 04:13:18;;;;;;;12.43;7.22;;;;;;;;;;5040748;28;20102;-63
2022/03/15 04:15:45;;;;;;;17.83;7.85;;;;;;;;;;5042887;28;20390;-63
2022/03/15 04:18:10;;;;;;;15.20;7.03;;;;;;;;;;5045812;28;20029;-63
2022/03/15 04:23:56;;;;;;;17.38;7.00;;;;;;;;;;4936131;29;20051;-63
2022/03/15 04:26:24;;;;;;;13.70;7.38;;;;;;;;;;5026922;28;20048;-63
2022/03/15 04:28:50;;;;;;;14.07;7.30;;;;;;;;;;5042793;28;20057;-63
2022/03/15 04:31:16;;;;;;;12.95;7.18;;;;;;;;;;5050872;28;20037;-62
2022/03/15 04:33:41;;;;;;;14.27;7.47;;;;;;;;;;5048109;28;20041;-62
2022/03/15 04:36:07;;;;;;;11.55;7.05;;;;;;;;;;5047025;28;20454;-62
2022/03/15 04:38:33;;;;;;;13.93;7.10;;;;;;;;;;5045765;28;20526;-63
2022/03/15 04:40:59;;;;;;;14.45;7.47;;;;;;;;;;5050295;28;20117;-63
2022/03/15 04:43:25;;;;;;;13.40;7.50;;;;;;;;;;5048589;28;20029;-63
2022/03/15 04:45:51;;;;;;;16.65;7.90;;;;;;;;;;5035855;28;20043;-63
2022/03/15 04:48:23;;;;;;;14.38;7.57;;;;;;;;;;5029438;28;20033;-63
2022/03/15 04:50:49;;;;;;;14.02;7.15;;;;;;;;;;5040488;28;20033;-63
2022/03/15 04:53:14;;;;;;;14.20;7.40;;;;;;;;;;5048084;28;20532;-62
2022/03/15 04:55:40;;;;;;;11.82;6.97;;;;;;;;;;5048671;28;20390;-63
2022/03/15 04:58:05;;;;;;;13.85;7.43;;;;;;;;;;5049864;28;20063;-64
2022/03/15 05:00:31;;;;;;;14.93;7.15;;;;;;;;;;5048957;28;20041;-64
2022/03/15 05:02:56;;;;;;;14.27;7.07;;;;;;;;;;5054419;28;20036;-62
2022/03/15 05:05:22;;;;;;;16.77;7.32;;;;;;;;;;5048627;28;20126;-62
2022/03/15 05:07:47;;;;;;;13.40;7.03;;;;;;;;;;5045542;28;20068;-63
2022/03/15 05:12:57;;;;;;;14.80;7.55;;;;;;;;;;5053402;28;20048;-64
2022/03/15 05:15:23;;;;;;;17.60;7.40;;;;;;;;;;5050491;28;20033;-64
2022/03/15 05:17:48;;;;;;;16.98;7.45;;;;;;;;;;5050707;28;20037;-63
2022/03/15 05:20:14;;;;;;;15.00;7.55;;;;;;;;;;5049350;28;20087;-63
2022/03/15 05:22:40;;;;;;;13.75;6.38;;;;;;;;;;5051808;28;20514;-62
2022/03/15 05:25:06;;;;;;;13.85;7.15;;;;;;;;;;5037950;28;20029;-66
2022/03/15 05:27:35;;;;;;;14.60;7.60;;;;;;;;;;5035529;28;20083;-64
2022/03/15 05:30:00;;;;;;;15.80;6.65;;;;;;;;;;5050132;28;20037;-65
2022/03/15 05:32:26;;;;;;;10.43;6.60;;;;;;;;;;5053080;28;20041;-64
2022/03/15 05:34:52;;;;;;;12.27;6.65;;;;;;;;;;5052336;28;20532;-64
2022/03/15 05:37:17;;;;;;;13.43;6.80;;;;;;;;;;5050402;28;20033;-63
2022/03/15 05:39:43;;;;;;;18.90;6.82;;;;;;;;;;5049854;28;20035;-64
2022/03/15 05:42:13;;;;;;;13.38;6.38;;;;;;;;;;5053030;28;20060;-64
2022/03/15 05:44:39;;;;;;;12.32;6.60;;;;;;;;;;5053410;28;20128;-64
2022/03/15 05:47:05;;;;;;;12.40;6.78;;;;;;;;;;5054107;28;20114;-64
2022/03/15 05:49:30;;;;;;;13.55;7.05;;;;;;;;;;5047035;28;20029;-64
2022/03/15 05:51:56;;;;;;;11.93;6.32;;;;;;;;;;5034835;28;20033;-64
2022/03/15 05:54:21;;;;;;;12.82;7.10;;;;;;;;;;5037263;28;20449;-63
2022/03/15 05:56:47;;;;;;;15.68;6.35;;;;;;;;;;5053895;28;20029;-63
2022/03/15 05:59:13;;;;;;;10.82;5.93;;;;;;;;;;5036295;28;20069;-63
2022/03/15 06:01:39;;;;;;;11.35;6.40;;;;;;;;;;5053108;28;20061;-63
2022/03/15 06:04:05;;;;;;;14.75;6.35;;;;;;;;;;5050401;28;20055;-62
2022/03/15 06:06:31;;;;;;;12.80;6.72;;;;;;;;;;5053369;28;20116;-62
2022/03/15 06:08:56;;;;;;;10.93;6.05;;;;;;;;;;5050845;28;20040;-71
2022/03/15 06:11:21;;;;;;;13.75;6.40;;;;;;;;;;5063517;28;20426;-64
2022/03/15 06:13:47;;;;;;;13.13;6.72;;;;;;;;;;5061133;28;20354;-63
2022/03/15 06:16:13;;;;;;;12.02;6.00;;;;;;;;;;5037912;28;20060;-63
2022/03/15 06:18:39;;;;;;;14.32;6.53;;;;;;;;;;5034031;28;20418;-65
2022/03/15 06:21:04;;;;;;;14.82;6.82;;;;;;;;;;5053466;28;20056;-70
2022/03/15 06:23:30;;;;;;;18.30;7.07;;;;;;;;;;5053331;28;20111;-72
2022/03/15 06:25:55;;;;;;;14.40;6.95;;;;;;;;;;5053794;28;20060;-69
2022/03/15 06:28:21;;;;;;;18.27;7.15;;;;;;;;;;5047351;28;20471;-76
2022/03/15 06:30:46;;;;;;;13.07;6.45;;;;;;;;;;5053258;28;20029;-78
2022/03/15 06:33:12;;;;;;;15.45;6.40;;;;;;;;;;5051880;28;20104;-70
2022/03/15 06:35:38;;;;;;;17.80;6.72;;;;;;;;;;5052894;28;20033;-77
2022/03/15 06:38:03;;;;;;;15.07;6.63;;;;;;;;;;5054495;28;20036;-77
2022/03/15 06:40:32;;;;;;;11.60;5.93;;;;;;;;;;5056948;28;20086;-75
2022/03/15 06:42:58;;;;;;;14.05;6.30;;;;;;;;;;5073281;28;20525;-75
2022/03/15 06:45:23;;;;;;;25.73;6.93;;;;;;;;;;5071292;28;20119;-72
2022/03/15 06:47:49;;;;;;;15.50;7.18;;;;;;;;;;5064640;28;20482;-76
2022/03/15 06:50:17;;;;;;;12.60;6.22;;;;;;;;;;5035687;28;20041;-70
2022/03/15 06:52:44;;;;;;;18.02;6.57;;;;;;;;;;5032896;28;20029;-71
2022/03/15 06:55:11;;;;;;;13.88;6.25;;;;;;;;;;5052393;28;20044;-75
2022/03/15 06:57:37;;;;;;;11.45;6.50;;;;;;;;;;5071931;28;20046;-75
2022/03/15 07:00:05;;;;;;;12.45;6.55;;;;;;;;;;5063619;28;20149;-72
2022/03/15 07:02:30;;;;;;;14.45;6.43;;;;;;;;;;5049310;28;20029;-72
2022/03/15 07:04:56;;;;;;;17.77;7.18;;;;;;;;;;5041481;28;20045;-69
2022/03/15 07:07:21;;;;;;;14.45;6.50;;;;;;;;;;5034576;28;20098;-71
2022/03/15 07:09:47;;;;;;;11.27;6.35;;;;;;;;;;5056605;28;20454;-69
2022/03/15 07:12:13;;;;;;;13.00;6.80;;;;;;;;;;5052136;28;20025;-67
2022/03/15 07:14:38;;;;;;;15.73;7.20;;;;;;;;;;5059365;28;20493;-70
2022/03/15 07:17:05;;;;;;;14.48;7.00;;;;;;;;;;5052210;28;20095;-70
2022/03/15 07:19:30;;;;;;;12.70;7.22;;;;;;;;;;5051606;28;20040;-71
2022/03/15 07:21:56;;;;;;;13.52;6.70;;;;;;;;;;5052840;28;20053;-71
2022/03/15 07:24:21;;;;;;;13.73;7.05;;;;;;;;;;5038353;28;20032;-72
2022/03/15 07:26:47;;;;;;;15.18;7.10;;;;;;;;;;5047868;28;20033;-68
2022/03/15 07:29:14;;;;;;;15.65;6.78;;;;;;;;;;5048926;28;20075;-67
2022/03/15 07:31:39;;;;;;;13.05;6.35;;;;;;;;;;5052734;28;20116;-73
2022/03/15 07:34:05;;;;;;;17.27;6.68;;;;;;;;;;5041200;28;20128;-74
2022/03/15 07:36:32;;;;;;;15.57;6.63;;;;;;;;;;5032081;28;20033;-72
2022/03/15 07:38:58;;;;;;;14.80;6.75;;;;;;;;;;5040905;28;20045;-73
2022/03/15 07:41:23;;;;;;;11.88;6.57;;;;;;;;;;5049198;28;20032;-77
2022/03/15 07:43:50;;;;;;;13.65;6.55;;;;;;;;;;5043579;28;20025;-75
2022/03/15 07:46:15;;;;;;;14.70;6.07;;;;;;;;;;5044343;28;20033;-67
2022/03/15 07:48:41;;;;;;;18.73;6.88;;;;;;;;;;5044388;28;20109;-75
2022/03/15 07:51:06;;;;;;;15.18;6.88;;;;;;;;;;5033498;28;20033;-74
2022/03/15 07:53:32;;;;;;;14.80;6.75;;;;;;;;;;5049977;28;20409;-74
2022/03/15 07:56:00;;;;;;;13.93;6.57;;;;;;;;;;5051346;28;20037;-72
2022/03/15 07:58:26;;;;;;;14.98;6.68;;;;;;;;;;5049851;28;20060;-74
2022/03/15 08:00:54;;;;;;;16.27;6.78;;;;;;;;;;5051827;28;20789;-75
2022/03/15 08:03:22;;;;;;;12.13;6.25;;;;;;;;;;5041797;28;20547;-73
2022/03/15 08:05:47;;;;;;;19.55;7.55;;;;;;;;;;5032164;28;20033;-74
2022/03/15 08:08:13;;;;;;;16.63;7.60;;;;;;;;;;5033566;28;20183;-74
2022/03/15 08:10:38;;;;;;;13.75;7.43;;;;;;;;;;5050124;28;20041;-74
2022/03/15 08:13:04;;;;;;;16.52;7.38;;;;;;;;;;5034904;28;20518;-73
2022/03/15 08:15:29;;;;;;;14.95;7.10;;;;;;;;;;5047632;28;20110;-74
2022/03/15 08:17:54;;;;;;;14.38;7.10;;;;;;;;;;5050131;28;20043;-72
2022/03/15 08:20:20;;;;;;;17.83;7.55;;;;;;;;;;5070364;28;20077;-74
2022/03/15 08:22:46;;;;;;;18.38;7.32;;;;;;;;;;5071579;28;20114;-72
2022/03/15 08:25:12;;;;;;;15.68;7.97;;;;;;;;;;5024322;28;20029;-76
2022/03/15 08:27:38;;;;;;;12.80;7.18;;;;;;;;;;5036894;28;20661;-75
2022/03/15 08:30:04;;;;;;;15.40;7.40;;;;;;;;;;5051136;28;20033;-69
2022/03/15 08:32:30;;;;;;;15.57;7.32;;;;;;;;;;5036978;28;20479;-68
2022/03/15 08:34:56;;;;;;;13.70;7.10;;;;;;;;;;5036218;28;20097;-70
2022/03/15 08:37:21;;;;;;;18.52;7.93;;;;;;;;;;5034034;28;20030;-71
2022/03/15 08:39:47;;;;;;;17.00;7.63;;;;;;;;;;5047125;28;20033;-72
2022/03/15 08:42:12;;;;;;;14.05;7.43;;;;;;;;;;5040403;28;20478;-71
2022/03/15 08:44:38;;;;;;;15.13;7.78;;;;;;;;;;5049886;28;20459;-69
2022/03/15 08:47:03;;;;;;;13.68;7.03;;;;;;;;;;5050817;28;20033;-72
2022/03/15 08:49:29;;;;;;;18.40;7.63;;;;;;;;;;5030928;28;20278;-74
2022/03/15 08:51:54;;;;;;;13.75;7.13;;;;;;;;;;5032746;28;20079;-73
2022/03/15 08:54:22;;;;;;;14.85;7.20;;;;;;;;;;5049653;28;20082;-66
2022/03/15 08:56:48;;;;;;;16.38;7.03;;;;;;;;;;5049288;28;20115;-74
2022/03/15 08:59:16;;;;;;;15.15;6.85;;;;;;;;;;5059015;28;20131;-73
2022/03/15 09:01:44;;;;;;;14.43;7.32;;;;;;;;;;5041309;28;20451;-73
2022/03/15 09:04:11;;;;;;;15.73;6.72;;;;;;;;;;5031682;28;20033;-74
2022/03/15 09:06:37;;;;;;;13.50;6.57;;;;;;;;;;5034518;28;20463;-75
2022/03/15 09:09:03;;;;;;;12.00;6.45;;;;;;;;;;5048242;28;20386;-74
2022/03/15 09:11:30;;;;;;;14.00;7.07;;;;;;;;;;5048971;28;20029;-77
2022/03/15 09:14:17;;;;;;;12.38;6.43;;;;;;;;;;5049287;28;20105;-73
2022/03/15 09:16:42;;;;;;;11.68;6.47;;;;;;;;;;5050032;28;20029;-76
2022/03/15 09:19:09;;;;;;;16.83;6.95;;;;;;;;;;5043406;28;20033;-75
2022/03/15 09:21:35;;;;;;;20.55;7.50;;;;;;;;;;5045154;28;20045;-74
2022/03/15 09:24:00;;;;;;;22.95;7.63;;;;;;;;;;5057054;28;20040;-72
2022/03/15 09:26:27;;;;;;;13.07;6.75;;;;;;;;;;5049749;28;20499;-71
2022/03/15 09:28:53;;;;;;;13.63;6.88;;;;;;;;;;5050389;28;20044;-72
2022/03/15 09:31:20;;;;;;;15.38;7.32;;;;;;;;;;5050467;28;20033;-69
2022/03/15 09:33:45;;;;;;;14.43;6.97;;;;;;;;;;5050521;28;20039;-75
2022/03/15 09:36:12;;;;;;;15.90;6.70;;;;;;;;;;5050247;28;20041;-74
2022/03/15 09:38:37;;;;;;;13.98;6.78;;;;;;;;;;5046060;28;20112;-72
2022/03/15 09:41:04;;;;;;;14.93;5.90;;;;;;;;;;5043078;28;20167;-74
2022/03/15 09:43:35;;;;;;;14.38;6.30;;;;;;;;;;5048578;28;20883;-74
2022/03/15 09:46:02;;;;;;;11.15;6.43;;;;;;;;;;5046571;28;20065;-75
2022/03/15 09:48:38;;;;;;;16.25;7.25;;;;;;;;;;5050844;28;20037;-75
2022/03/15 09:51:09;;;;;;;19.65;6.65;;;;;;;;;;5053959;28;20036;-71
2022/03/15 09:53:36;;;;;;;18.45;6.80;;;;;;;;;;5054228;28;20037;-74
2022/03/15 09:56:02;;;;;;;13.25;6.38;;;;;;;;;;5046753;28;20030;-75
2022/03/15 09:58:27;;;;;;;14.93;6.53;;;;;;;;;;5043513;28;20044;-75
2022/03/15 10:00:55;;;;;;;18.85;6.18;;;;;;;;;;5052596;28;20395;-76
2022/03/15 10:03:21;;;;;;;10.70;5.93;;;;;;;;;;5039754;28;20471;-68
2022/03/15 10:05:49;;;;;;;12.10;5.97;;;;;;;;;;5052085;28;20036;-73
2022/03/15 10:08:15;;;;;;;11.65;5.68;;;;;;;;;;5054019;28;20036;-76
2022/03/15 10:10:42;;;;;;;14.50;6.10;;;;;;;;;;5052709;28;20032;-75
2022/03/15 10:13:08;;;;;;;14.57;5.60;;;;;;;;;;5046528;28;20112;-74
2022/03/15 10:15:33;;;;;;;15.10;5.85;;;;;;;;;;5033413;28;20104;-73
2022/03/15 10:18:05;;;;;;;14.25;5.55;;;;;;;;;;5051123;28;20181;-72
2022/03/15 10:20:42;;;;;;;10.88;5.90;;;;;;;;;;5070313;28;20086;-69
2022/03/15 10:23:10;;;;;;;11.57;5.85;;;;;;;;;;5046525;28;20044;-73
2022/03/15 10:25:36;;;;;;;13.40;6.20;;;;;;;;;;5051405;28;20116;-74
2022/03/15 10:28:05;;;;;;;20.33;6.00;;;;;;;;;;5070052;28;20135;-75
2022/03/15 10:30:31;;;;;;;14.70;5.88;;;;;;;;;;5048690;28;20076;-72
2022/03/15 10:32:57;;;;;;;12.68;6.07;;;;;;;;;;5033720;28;20044;-71
2022/03/15 10:35:29;;;;;;;13.23;5.95;;;;;;;;;;5032843;28;20112;-68
2022/03/15 10:37:56;;;;;;;14.65;6.03;;;;;;;;;;5043032;28;20041;-73
2022/03/15 10:40:33;;;;;;;13.40;6.35;;;;;;;;;;5061057;28;20028;-69
2022/03/15 10:43:10;;;;;;;11.57;5.70;;;;;;;;;;5050611;28;20048;-74
2022/03/15 10:45:40;;;;;;;16.38;6.57;;;;;;;;;;5063727;28;20402;-74
2022/03/15 10:48:45;;;;;;;10.40;5.57;;;;;;;;;;5043273;28;20480;-74
2022/03/15 10:51:16;;;;;;;15.60;5.82;;;;;;;;;;5039870;28;20037;-73
2022/03/15 10:53:44;;;;;;;12.23;6.15;;;;;;;;;;5052930;28;20569;-72
2022/03/15 10:56:21;;;;;;;12.07;6.00;;;;;;;;;;5051619;28;20475;-74
2022/03/15 10:58:53;;;;;;;10.13;6.32;;;;;;;;;;5051722;28;20039;-73
2022/03/15 11:01:23;;;;;;;15.43;6.00;;;;;;;;;;5053013;28;20033;-74
2022/03/15 11:03:59;;;;;;;13.77;6.57;;;;;;;;;;5046401;28;20071;-73
2022/03/15 11:06:51;;;;;;;11.73;5.32;;;;;;;;;;5032312;28;20041;-68
2022/03/15 11:09:25;;;;;;;10.07;5.18;;;;;;;;;;5049323;28;20037;-73
2022/03/15 11:11:54;;;;;;;12.98;5.35;;;;;;;;;;5052575;28;20493;-72
2022/03/15 11:14:30;;;;;;;12.88;4.97;;;;;;;;;;5068157;28;20039;-72
2022/03/15 11:17:15;;;;;;;9.57;5.00;;;;;;;;;;5052650;28;20463;-71
2022/03/15 11:19:48;;;;;;;11.93;4.93;;;;;;;;;;5054036;28;20391;-72
2022/03/15 11:22:15;;;;;;;9.70;4.80;;;;;;;;;;5041363;28;20109;-68
2022/03/15 11:24:54;;;;;;;10.68;4.28;;;;;;;;;;5054373;28;20030;-69
2022/03/15 11:27:21;;;;;;;9.70;4.90;;;;;;;;;;5044692;28;20043;-68
2022/03/15 11:29:47;;;;;;;11.07;4.25;;;;;;;;;;5066888;28;20032;-69
2022/03/15 11:32:14;;;;;;;13.77;4.95;;;;;;;;;;5071081;28;20391;-68
2022/03/15 11:34:41;;;;;;;10.65;4.90;;;;;;;;;;5052420;28;20093;-69
2022/03/15 11:37:10;;;;;;;11.02;4.60;;;;;;;;;;5067118;28;20036;-72
2022/03/15 11:39:38;;;;;;;11.10;5.85;;;;;;;;;;5048782;28;20375;-73
2022/03/15 11:42:07;;;;;;;12.27;5.18;;;;;;;;;;5052138;28;20033;-73
2022/03/15 11:44:40;;;;;;;12.18;4.88;;;;;;;;;;5046956;28;20033;-66
2022/03/15 11:47:14;;;;;;;10.00;4.60;;;;;;;;;;5055096;28;20115;-68
2022/03/15 11:49:52;;;;;;;11.63;4.68;;;;;;;;;;5048442;28;20095;-70
2022/03/15 11:52:37;;;;;;;12.38;4.38;;;;;;;;;;5067644;28;20115;-69
2022/03/15 11:55:25;;;;;;;11.88;4.53;;;;;;;;;;5048288;28;20036;-69
2022/03/15 11:57:58;;;;;;;6.80;3.35;;;;;;;;;;5044174;28;20032;-69
2022/03/15 12:00:42;;;;;;;8.98;3.38;;;;;;;;;;5039889;28;20111;-71
2022/03/15 12:03:08;;;;;;;8.50;3.63;;;;;;;;;;5048399;28;20033;-66
2022/03/15 12:05:54;;;;;;;7.53;3.67;;;;;;;;;;5035746;28;20029;-68
2022/03/15 12:08:23;;;;;;;7.22;3.45;;;;;;;;;;5066752;28;20040;-68
2022/03/15 12:10:55;;;;;;;10.93;3.85;;;;;;;;;;5055952;28;20039;-72
2022/03/15 12:13:31;;;;;;;7.80;3.70;;;;;;;;;;5033743;28;20084;-70
2022/03/15 12:16:11;;;;;;;8.88;3.92;;;;;;;;;;5038902;28;20028;-69
2022/03/15 12:18:44;;;;;;;7.28;3.58;;;;;;;;;;5055702;28;20111;-65
2022/03/15 12:21:11;;;;;;;10.82;4.18;;;;;;;;;;5071191;28;20052;-70
2022/03/15 12:23:43;;;;;;;7.53;3.97;;;;;;;;;;5070766;28;20033;-71
2022/03/15 12:26:18;;;;;;;8.60;3.78;;;;;;;;;;5068836;28;20041;-72
2022/03/15 12:29:03;;;;;;;6.70;3.88;;;;;;;;;;5059949;28;20422;-72
2022/03/15 12:31:33;;;;;;;6.85;3.78;;;;;;;;;;5040401;28;20033;-67
2022/03/15 12:34:18;;;;;;;11.10;4.10;;;;;;;;;;5039626;28;20051;-73
2022/03/15 12:36:50;;;;;;;9.15;4.13;;;;;;;;;;5066015;28;20040;-74
2022/03/15 12:39:24;;;;;;;11.68;3.90;;;;;;;;;;5044553;28;20072;-69
2022/03/15 12:42:14;;;;;;;12.30;4.13;;;;;;;;;;5049044;28;20669;-68
2022/03/15 12:44:51;;;;;;;9.65;4.15;;;;;;;;;;5056096;28;20111;-68
2022/03/15 12:47:22;;;;;;;8.63;4.43;;;;;;;;;;5051955;28;20051;-68
2022/03/15 12:50:03;;;;;;;;;;;;;;;;;;5046169;28;20612;-67
2022/03/15 12:52:45;;;;;;;8.45;4.00;;;;;;;;;;5057904;28;19977;-66
2022/03/15 12:55:22;;;;;;;6.68;3.75;;;;;;;;;;5065584;28;20037;-69
2022/03/15 12:57:54;;;;;;;6.53;3.97;;;;;;;;;;5050276;28;20294;-68
2022/03/15 13:00:22;;;;;;;7.65;4.45;;;;;;;;;;5050742;28;20104;-69
2022/03/15 13:02:51;;;;;;;8.73;4.43;;;;;;;;;;5049578;28;20039;-72
2022/03/15 13:05:17;;;;;;;8.93;4.18;;;;;;;;;;5056826;28;20033;-73
2022/03/15 13:07:47;;;;;;;8.40;4.13;;;;;;;;;;5057829;28;20037;-71
2022/03/15 13:10:14;;;;;;;9.47;3.90;;;;;;;;;;5042498;28;20104;-71
2022/03/15 13:12:43;;;;;;;11.45;4.00;;;;;;;;;;5048435;28;20285;-71
2022/03/15 13:15:19;;;;;;;8.98;4.10;;;;;;;;;;5046175;28;20506;-71
2022/03/15 13:17:59;;;;;;;8.10;4.43;;;;;;;;;;5064681;28;20033;-73
2022/03/15 13:20:34;;;;;;;9.38;4.20;;;;;;;;;;5038619;28;20033;-74
2022/03/15 13:23:06;;;;;;;8.82;4.32;;;;;;;;;;5053683;28;20071;-73
2022/03/15 13:25:35;;;;;;;9.98;3.78;;;;;;;;;;5035815;28;20032;-66
2022/03/15 13:28:06;;;;;;;10.30;4.10;;;;;;;;;;5054357;28;20029;-73
2022/03/15 13:30:36;;;;;;;;;;;;;;;;;;5051430;28;20039;-65
2022/03/15 13:33:01;;;;;;;7.55;3.78;;;;;;;;;;5034367;28;19913;-73
2022/03/15 13:35:27;;;;;;;9.65;3.80;;;;;;;;;;5053874;28;20056;-72
2022/03/15 13:37:53;;;;;;;6.07;3.58;;;;;;;;;;5047224;28;20830;-73
2022/03/15 13:40:23;;;;;;;8.35;3.80;;;;;;;;;;5054597;28;20040;-73
2022/03/15 13:42:49;;;;;;;7.70;3.63;;;;;;;;;;5051195;28;20714;-72
2022/03/15 13:45:15;;;;;;;8.57;3.40;;;;;;;;;;5054082;28;20167;-71
2022/03/15 13:47:55;;;;;;;9.10;2.80;;;;;;;;;;5036478;28;20061;-71
2022/03/15 13:50:41;;;;;;;5.22;2.75;;;;;;;;;;5047190;28;20041;-72
2022/03/15 13:53:18;;;;;;;6.45;2.70;;;;;;;;;;5052254;28;20052;-73
2022/03/15 13:55:44;;;;;;;4.85;2.58;;;;;;;;;;5033770;28;20029;-74
2022/03/15 13:58:10;;;;;;;4.70;2.55;;;;;;;;;;5048513;28;20033;-72
2022/03/15 14:00:35;;;;;;;4.68;2.83;;;;;;;;;;5052161;28;20104;-73
2022/03/15 14:03:07;;;;;;;7.75;3.05;;;;;;;;;;5045589;28;20033;-73
2022/03/15 14:05:33;;;;;;;6.82;3.10;;;;;;;;;;5053246;28;20090;-68
2022/03/15 14:08:05;;;;;;;7.78;2.72;;;;;;;;;;5054085;28;20115;-69
2022/03/15 14:10:31;;;;;;;6.50;2.83;;;;;;;;;;5048892;28;20026;-69
2022/03/15 14:12:57;;;;;;;5.43;2.75;;;;;;;;;;5033656;28;20394;-67
2022/03/15 14:15:26;;;;;;;5.30;2.72;;;;;;;;;;5032614;28;20044;-72
2022/03/15 14:17:57;;;;;;;5.95;2.72;;;;;;;;;;5053051;28;20086;-72
2022/03/15 14:20:27;;;;;;;;;;;;;;;;;;5070623;28;20036;-67
2022/03/15 14:22:54;;;;;;;4.10;2.30;;;;;;;;;;5062547;28;19920;-71
2022/03/15 14:25:47;;;;;;;4.50;2.38;;;;;;;;;;5044304;28;20057;-75
2022/03/15 14:28:20;;;;;;;5.57;2.63;;;;;;;;;;5046908;28;20033;-69
2022/03/15 14:30:45;;;;;;;7.05;2.63;;;;;;;;;;5040781;28;20033;-73
2022/03/15 14:33:13;;;;;;;5.70;2.25;;;;;;;;;;5034671;28;20120;-71
2022/03/15 14:35:40;;;;;;;4.53;2.30;;;;;;;;;;5049554;28;20029;-73
2022/03/15 14:38:16;;;;;;;6.47;2.47;;;;;;;;;;5053582;28;20061;-73
2022/03/15 14:40:54;;;;;;;4.60;2.50;;;;;;;;;;5048292;28;20402;-73
2022/03/15 14:43:26;;;;;;;5.25;2.40;;;;;;;;;;5056073;28;20454;-74
2022/03/15 14:45:55;;;;;;;6.20;2.35;;;;;;;;;;5042651;28;20237;-72